Home > Products > Valid Products > TAF

000
FTUS43 KDMX 262337
TAFALO
TAF
KALO 262337Z 2700/2724 VRB05KT P6SM BKN150
     FM270200 16005KT P6SM -SHRA VCTS BKN060CB
     FM270900 15005KT P6SM VCSH BKN025 OVC080
     FM271600 17010KT P6SM VCSH SCT025 BKN040=



000
FTUS43 KDMX 262337
TAFDSM
TAF
KDSM 262337Z 2700/2724 16007KT P6SM -TSRA SCT030 OVC050CB
     FM270900 13009KT P6SM VCSH BKN020 OVC040
     FM271500 18009KT P6SM VCSH BKN030 OVC050
     FM272000 18009KT P6SM VCSH SCT040 BKN080=



000
FTUS43 KDMX 262337
TAFOTM
TAF
KOTM 262337Z 2700/2724 21007KT P6SM -TSRA SCT040 OVC100CB
     FM270500 12006KT P6SM VCSH OVC040
     FM270900 17006KT P6SM VCSH OVC030
     FM271400 17012KT P6SM VCSH BKN040=



000
FTUS43 KDMX 262337
TAFMCW
TAF
KMCW 262337Z 2700/2724 15007KT P6SM SCT060 OVC140
     FM270300 15007KT P6SM -TSRA OVC050CB
     FM270900 13006KT P6SM SHRA BKN020 OVC050
     FM271300 14008KT P6SM VCSH OVC025
     FM271900 18007KT P6SM VCSH SCT030 BKN040=



000
FTUS43 KDMX 262337
TAFFOD
TAF
KFOD 262337Z 2700/2724 18010G23KT P6SM -TSRA BKN050CB OVC100
     FM270900 16006KT P6SM VCSH BKN025 OVC060
     FM271400 17007KT P6SM VCSH SCT030 BKN040=



000
FTUS43 KDMX 260821 AAA
TAFMCW
TAF AMD
KMCW 260821Z 2608/2706 32016G26KT 3SM -TSRA BR BKN035CB OVC080
     FM260900 35009KT P6SM VCTS BKN040CB
     FM261100 VRB06KT P6SM FEW045 BKN150
     FM270000 15009KT P6SM VCTS SCT040CB BKN070=



000
FTUS43 KDMX 260523
TAFDSM
TAF
KDSM 260523Z 2606/2706 17005KT P6SM SCT045 BKN070
     FM260700 VRB05KT P6SM VCTS SCT030CB BKN060
     FM261100 VRB06KT P6SM SCT030 BKN150
     FM262200 15009KT P6SM VCTS SCT035CB BKN060=



000
FTUS43 KDMX 260523
TAFFOD
TAF
KFOD 260523Z 2606/2706 17005KT P6SM FEW050 BKN090
     FM260700 VRB05KT P6SM VCTS SCT035CB BKN070
     FM261000 VRB06KT P6SM FEW050 BKN150
     FM262200 15009KT P6SM VCTS SCT040CB BKN070=



000
FTUS43 KDMX 260523
TAFOTM
TAF
KOTM 260523Z 2606/2706 17005KT P6SM SCT045 BKN070
     FM260700 VRB05KT P6SM VCTS SCT030CB BKN060
     FM261200 VRB06KT P6SM SCT030 BKN150
     FM270000 15009KT P6SM VCTS SCT035CB BKN060=



000
FTUS43 KDMX 260523
TAFALO
TAF
KALO 260523Z 2606/2706 18005KT P6SM FEW050 BKN090
     FM260900 VRB05KT P6SM VCTS SCT040CB BKN070
     FM261200 VRB06KT P6SM FEW050 BKN150
     FM270000 15009KT P6SM VCTS SCT040CB BKN070=



000
FTUS43 KDMX 252033 AAB
TAFALO
TAF AMD
KALO 252033Z 2521/2618 21013KT P6SM SCT025 SCT120
     FM252100 17009KT P6SM BKN040
     FM260400 17008KT P6SM VCTS BKN040CB BKN110
      TEMPO 2605/2608 4SM -TSRA OVC040CB
     FM261100 20006KT 3SM BR SCT130
     FM261400 20006KT P6SM SCT140=



000
FTUS43 KDMX 251736
TAFDSM
TAF
KDSM 251736Z 2518/2618 17010G14KT P6SM SCT015 SCT110
     FM260200 20004KT P6SM BKN050
     FM260400 18005KT P6SM VCTS BKN040CB
      TEMPO 2604/2607 4SM -TSRA BKN015 BKN045CB
     FM260700 19005KT 5SM BR BKN009 OVC025
     FM261300 20005KT P6SM SCT009 BKN015
     FM261500 19006KT P6SM SCT015 BKN050=



000
FTUS43 KDMX 251736
TAFMCW
TAF
KMCW 251736Z 2518/2618 20012G18KT P6SM -SHRA SCT010 BKN050
     FM251900 17010KT P6SM BKN050 BKN250
     FM260500 17004KT 5SM BR SCT200
     FM261400 21006KT P6SM SCT200=



000
FTUS43 KDMX 251736
TAFFOD
TAF
KFOD 251736Z 2518/2618 16010G16KT P6SM SCT020
     FM252000 19008KT P6SM SCT035 SCT250
     FM260400 18005KT P6SM BKN040 BKN110
     FM260500 VRB03KT P6SM BKN040
      TEMPO 2605/2607 4SM -TSRA OVC040CB
     FM261500 19009KT P6SM SCT150=



000
FTUS43 KDMX 251736
TAFALO
TAF
KALO 251736Z 2518/2618 19009KT P6SM BKN009 BKN045
     FM252100 17009KT P6SM BKN040
     FM260400 17008KT P6SM VCTS BKN040CB BKN110
      TEMPO 2605/2608 4SM -TSRA OVC040CB
     FM261100 20006KT 3SM BR SCT130
     FM261400 20006KT P6SM SCT140=



000
FTUS43 KDMX 251736
TAFOTM
TAF
KOTM 251736Z 2518/2618 20011KT P6SM VCSH BKN090
     FM252100 19012KT P6SM BKN100
     FM252300 19011KT P6SM SCT110
     FM260600 19008KT P6SM VCTS BKN025CB
      TEMPO 2607/2610 4SM -TSRA OVC007CB
     FM261300 20007KT P6SM VCSH BKN015
     FM261500 20007KT P6SM SCT015 BKN035=



000
FTUS43 KDMX 251634 AAE
TAFALO
TAF AMD
KALO 251634Z 2517/2612 14008KT 5SM BR VCTS SCT016 OVC021CB
     FM251700 15011KT P6SM VCTS BKN016 OVC040CB
     FM251900 16016KT P6SM SCT040 BKN070
     FM260300 16005KT P6SM VCTS BKN035CB OVC080
     FM261000 19005KT P6SM SCT020 BKN100=



000
FTUS43 KDMX 251402 AAB
TAFALO
TAF AMD
KALO 251402Z 2514/2612 12007KT 6SM -SHRA BKN007 OVC100
     FM251500 14008KT 5SM -TSRA BKN008 OVC015CB
     FM251600 15011KT P6SM VCTS OVC040CB
     FM251900 16016KT P6SM SCT040 BKN070
     FM260300 16005KT P6SM VCTS BKN035CB OVC080
     FM261000 19005KT P6SM SCT020 BKN100=



000
FTUS43 KDMX 251315 AAA
TAFALO
TAF AMD
KALO 251315Z 2513/2612 12007KT 5SM -SHRA SCT040 OVC100
     FM251500 14008KT 5SM -TSRA BKN008 OVC015CB
     FM251600 15011KT P6SM VCTS OVC040CB
     FM251900 16016KT P6SM SCT040 BKN070
     FM260300 16005KT P6SM VCTS BKN035CB OVC080
     FM261000 19005KT P6SM SCT020 BKN100=



000
FTUS43 KDMX 251313 AAA
TAFFOD
TAF AMD
KFOD 251313Z 2513/2612 17006KT P6SM VCSH OVC090
      TEMPO 2513/2515 5SM -TSRA OVC015CB
     FM251500 15012KT P6SM VCTS OVC040CB
     FM251700 17015KT P6SM SCT080
     FM260200 20004KT P6SM VCTS BKN035CB OVC120
      TEMPO 2602/2604 2SM -TSRA OVC025CB
     FM260500 18004KT P6SM SCT025 BKN080=



000
FTUS43 KDMX 251220 AAA
TAFMCW
TAF AMD
KMCW 251220Z 2512/2612 14007KT P6SM VCTS SCT040CB OVC100
      TEMPO 2512/2514 3SM TSRA SCT020CB OVC040
     FM251600 15011KT P6SM VCTS OVC040CB
     FM251900 17016KT P6SM SCT040 BKN070
     FM260300 19005KT P6SM VCTS BKN035CB OVC080
     FM261000 22005KT P6SM SCT020 BKN100=



000
FTUS43 KDMX 251036 AAB
TAFDSM
TAF AMD
KDSM 251036Z 2511/2606 17006KT P6SM VCTS BKN060CB OVC100
      TEMPO 2511/2512 25025G45KT 1SM TSRA BKN005 OVC010CB
     FM251300 17008KT 5SM -TSRA BKN040CB OVC080
     FM251600 15011KT P6SM VCTS OVC035CB
     FM251800 16013KT P6SM BKN040
     FM260200 20008KT P6SM BKN080=



000
FTUS43 KDMX 250954 AAA
TAFDSM
TAF AMD
KDSM 250954Z 2510/2606 17006KT P6SM VCTS BKN060CB OVC100
      TEMPO 2510/2512 25025G45KT 1SM TSRA OVC020CB
     FM251300 17008KT 5SM -TSRA BKN040CB OVC080
     FM251600 15011KT P6SM VCTS OVC035CB
     FM251800 16013KT P6SM BKN040
     FM260200 20008KT P6SM BKN080=



000
FTUS43 KDMX 241651 AAA
TAFOTM
TAF AMD
KOTM 241651Z 2417/2512 19006KT P6SM BKN028 BKN090
     FM241800 19006KT P6SM SCT028 BKN090
     FM250000 16007KT P6SM SCT040 OVC100
     FM250600 15007KT P6SM VCTS BKN060CB
     FM251100 14007KT 4SM -TSRA SCT025 OVC040CB=



000
FTUS43 KDMX 241600 AAC
TAFDSM
TAF AMD
KDSM 241600Z 2416/2512 19006KT P6SM BKN016 BKN100
     FM241800 19006KT P6SM SCT020 BKN100
     FM250000 16007KT P6SM SCT040 OVC100
     FM250600 19007KT P6SM VCTS BKN070CB
     FM251100 13007KT 4SM -TSRA SCT025 OVC040CB=



000
FTUS43 KDMX 241502 AAB
TAFDSM
TAF AMD
KDSM 241502Z 2415/2512 19006KT P6SM BKN016 BKN100
     FM241600 19006KT P6SM SCT020 BKN100
     FM250000 16007KT P6SM SCT040 OVC100
     FM250600 19007KT P6SM VCTS BKN070CB
     FM251100 13007KT 4SM -TSRA SCT025 OVC040CB=



    US Dept of Commerce
    National Oceanic and Atmospheric Administration
    National Weather Service
    1325 East West Highway
    Silver Spring, MD 20910
    Page Author: NWS Internet Services Team
Disclaimer
Information Quality
Credits
Glossary
Privacy Policy
Freedom of Information Act (FOIA)
About Us
Career Opportunities